Cromwell, Washington
Current Conditions -  °F | °C
As of 4:09 AM on Thursday 29 Jan 2015 (Local Time) from KTIW Reporting Station
Scattered Clouds Scattered Clouds  
Wind Chill:   Ceiling: Unl
Heat Index:   Visibility: 10mi
Dew Point:   Wind: 5mph
Humidity: 93%   Direction: 360°N
Pressure: 30.36"   Gusts: NA
Location:  47.2986°N, 122.616°W
Report Text: KTIW 291209Z AUTO 36004KT 10SM SCT004 06/05 A3036 RMK AO2 T00610050
Loading
Personal Weather Stations






























Interactive Weather Map New forecast layout! Learn more

10-Day Weather Forecast

Advertisements
Track Severe Weather on mobile